createdAt,value
2023-04-08T00:01:09.264Z,6.03
2023-04-08T00:03:36.992Z,6.07
2023-04-08T00:06:04.922Z,6.11
2023-04-08T00:08:32.822Z,6.14
2023-04-08T00:11:00.427Z,6.18
2023-04-08T00:13:27.954Z,6.17
2023-04-08T00:15:56.766Z,6.05
2023-04-08T00:18:24.266Z,6.09
2023-04-08T00:20:51.811Z,6.01
2023-04-08T00:23:21.279Z,5.88
2023-04-08T00:25:48.760Z,5.69
2023-04-08T00:28:16.498Z,5.70
2023-04-08T00:30:44.082Z,5.69
2023-04-08T00:33:13.015Z,5.76
2023-04-08T00:35:40.562Z,5.78
2023-04-08T00:38:08.700Z,5.78
2023-04-08T00:40:36.307Z,5.60
2023-04-08T00:43:03.837Z,5.64
2023-04-08T00:45:31.385Z,5.71
2023-04-08T00:47:58.941Z,5.66
2023-04-08T00:50:27.840Z,5.43
2023-04-08T00:52:55.360Z,5.49
2023-04-08T00:55:22.985Z,5.50
2023-04-08T00:57:50.553Z,5.51
2023-04-08T01:00:18.158Z,5.62
2023-04-08T01:02:49.084Z,5.61
2023-04-08T01:05:22.032Z,5.61
2023-04-08T01:07:51.586Z,5.63
2023-04-08T01:10:21.431Z,5.62
2023-04-08T01:13:00.685Z,5.56
2023-04-08T01:15:30.070Z,5.51
2023-04-08T01:18:00.527Z,5.52
2023-04-08T01:20:28.894Z,5.55
2023-04-08T01:23:06.845Z,5.51
2023-04-08T01:25:36.732Z,5.43
2023-04-08T01:28:08.101Z,5.42
2023-04-08T01:30:36.816Z,5.35
2023-04-08T01:33:05.085Z,5.30
2023-04-08T01:35:33.102Z,5.21
2023-04-08T01:38:01.495Z,5.27
2023-04-08T01:40:29.106Z,5.27
2023-04-08T01:42:57.973Z,5.27
2023-04-08T01:45:27.748Z,5.27
2023-04-08T01:47:56.413Z,5.27
2023-04-08T01:50:24.981Z,5.30
2023-04-08T01:52:53.773Z,5.32
2023-04-08T01:55:21.886Z,5.19
2023-04-08T01:57:51.526Z,5.22
2023-04-08T02:00:21.003Z,5.17
2023-04-08T02:02:50.846Z,5.23
2023-04-08T02:05:20.113Z,5.26
2023-04-08T02:07:48.388Z,5.20
2023-04-08T02:10:16.111Z,5.18
2023-04-08T02:12:44.628Z,5.16
2023-04-08T02:15:12.702Z,5.21
2023-04-08T02:17:45.477Z,5.15
2023-04-08T02:20:17.768Z,5.09
2023-04-08T02:22:56.349Z,5.03
2023-04-08T02:25:24.399Z,5.07
2023-04-08T02:27:53.356Z,5.12
2023-04-08T02:30:21.487Z,5.15
2023-04-08T02:32:49.735Z,5.15
2023-04-08T02:35:19.602Z,5.16
2023-04-08T02:37:48.636Z,5.15
2023-04-08T02:40:26.947Z,5.20
2023-04-08T02:42:54.640Z,5.19
2023-04-08T02:45:22.486Z,5.16
2023-04-08T02:47:51.000Z,5.20
2023-04-08T02:50:19.836Z,5.21
2023-04-08T02:52:47.368Z,5.19
2023-04-08T02:55:14.966Z,5.19
2023-04-08T02:57:43.376Z,5.19
2023-04-08T03:00:11.947Z,5.20
2023-04-08T03:02:39.595Z,5.23
2023-04-08T03:05:08.051Z,5.20
2023-04-08T03:07:36.904Z,5.17
2023-04-08T03:10:04.805Z,5.20
2023-04-08T03:12:33.000Z,5.23
2023-04-08T03:15:01.059Z,5.09
2023-04-08T03:17:28.740Z,5.00
2023-04-08T03:19:56.257Z,5.08
2023-04-08T03:22:24.375Z,5.13
2023-04-08T03:24:53.234Z,5.10
2023-04-08T03:27:20.711Z,5.05
2023-04-08T03:29:48.419Z,4.99
2023-04-08T03:32:16.106Z,4.82
2023-04-08T03:34:43.667Z,4.90
2023-04-08T03:37:11.327Z,4.98
2023-04-08T03:39:39.251Z,5.01
2023-04-08T03:42:08.073Z,4.89
2023-04-08T03:44:35.557Z,4.91
2023-04-08T03:47:03.061Z,4.88
2023-04-08T03:49:30.550Z,4.84
2023-04-08T03:51:58.019Z,4.86
2023-04-08T03:54:25.618Z,4.87
2023-04-08T03:56:53.093Z,4.94
2023-04-08T03:59:21.952Z,4.88
2023-04-08T04:01:51.278Z,4.89
2023-04-08T04:04:19.060Z,4.95
2023-04-08T04:06:46.815Z,4.90
2023-04-08T04:09:15.192Z,4.93
2023-04-08T04:11:42.667Z,4.94
2023-04-08T04:14:10.179Z,4.98
2023-04-08T04:16:39.031Z,5.01
2023-04-08T04:19:06.642Z,5.00
2023-04-08T04:21:34.140Z,4.90
2023-04-08T04:24:01.665Z,4.92
2023-04-08T04:26:29.171Z,4.90
2023-04-08T04:28:56.717Z,4.85
2023-04-08T04:31:26.430Z,4.90
2023-04-08T04:33:55.403Z,4.91
2023-04-08T04:36:22.932Z,4.95
2023-04-08T04:38:50.813Z,4.98
2023-04-08T04:41:18.542Z,4.92
2023-04-08T04:43:46.216Z,4.99
2023-04-08T04:46:13.728Z,5.03
2023-04-08T04:48:41.553Z,5.08
2023-04-08T04:51:10.464Z,5.08
2023-04-08T04:53:37.918Z,5.04
2023-04-08T04:56:05.528Z,5.03
2023-04-08T04:58:33.045Z,5.03
2023-04-08T05:01:00.500Z,5.02
2023-04-08T05:03:28.046Z,5.02
2023-04-08T05:05:55.890Z,5.03
2023-04-08T05:08:27.256Z,5.03
2023-04-08T05:10:56.100Z,5.01
2023-04-08T05:13:23.673Z,5.06
2023-04-08T05:15:51.277Z,5.06
2023-04-08T05:18:18.827Z,5.09
2023-04-08T05:20:46.806Z,4.93
2023-04-08T05:23:14.272Z,4.64
2023-04-08T05:25:43.091Z,4.83
2023-04-08T05:28:10.612Z,4.98
2023-04-08T05:30:38.166Z,4.92
2023-04-08T05:33:05.682Z,4.97
2023-04-08T05:35:33.355Z,4.96
2023-04-08T05:38:00.853Z,4.97
2023-04-08T05:40:28.337Z,4.97
2023-04-08T05:42:57.145Z,4.97
2023-04-08T05:45:24.662Z,4.99
2023-04-08T05:47:52.147Z,4.95
2023-04-08T05:50:19.692Z,4.97
2023-04-08T05:52:47.382Z,5.02
2023-04-08T05:55:15.554Z,5.11
2023-04-08T05:57:43.034Z,5.07
2023-04-08T06:00:12.508Z,5.08
2023-04-08T06:02:40.120Z,5.08
2023-04-08T06:05:08.213Z,5.02
2023-04-08T06:07:35.858Z,5.01
2023-04-08T06:10:03.511Z,4.98
2023-04-08T06:12:31.189Z,5.11
2023-04-08T06:14:58.756Z,5.09
2023-04-08T06:17:27.634Z,5.15
2023-04-08T06:19:55.215Z,5.14
2023-04-08T06:22:22.722Z,5.10
2023-04-08T06:24:50.218Z,4.94
2023-04-08T06:27:18.264Z,4.92
2023-04-08T06:29:45.749Z,4.93
2023-04-08T06:32:13.252Z,4.99
2023-04-08T06:34:42.220Z,4.98
2023-04-08T06:37:09.826Z,4.86
2023-04-08T06:39:37.295Z,4.93
2023-04-08T06:42:04.834Z,4.86
2023-04-08T06:44:45.177Z,4.97
2023-04-08T06:47:12.650Z,4.93
2023-04-08T06:49:40.109Z,4.93
2023-04-08T06:52:08.901Z,4.95
2023-04-08T06:54:36.417Z,4.92
2023-04-08T06:57:04.186Z,4.97
2023-04-08T06:59:31.725Z,5.00
2023-04-08T07:01:59.316Z,4.94
2023-04-08T07:04:27.004Z,4.99
2023-04-08T07:06:54.839Z,5.09
2023-04-08T07:09:23.677Z,5.16
2023-04-08T07:11:51.287Z,5.20
2023-04-08T07:14:19.597Z,5.26
2023-04-08T07:16:47.171Z,5.13
2023-04-08T07:19:14.695Z,5.18
2023-04-08T07:21:42.390Z,5.27
2023-04-08T07:24:09.892Z,5.33
2023-04-08T07:26:39.289Z,5.32
2023-04-08T07:29:06.783Z,5.20
2023-04-08T07:31:34.370Z,5.14
2023-04-08T07:34:01.906Z,5.16
2023-04-08T07:36:29.423Z,5.23
2023-04-08T07:38:56.909Z,5.23
2023-04-08T07:41:24.413Z,5.29
2023-04-08T07:43:53.204Z,5.30
2023-04-08T07:46:21.160Z,5.36
2023-04-08T07:48:49.053Z,5.43
2023-04-08T07:51:16.713Z,5.33
2023-04-08T07:53:47.928Z,5.36
2023-04-08T07:56:18.202Z,5.40
2023-04-08T07:58:45.921Z,5.42
2023-04-08T08:01:20.097Z,5.35
2023-04-08T08:03:48.511Z,5.45
2023-04-08T08:06:16.432Z,5.40
2023-04-08T08:08:44.107Z,5.41
2023-04-08T08:11:11.763Z,5.37
2023-04-08T08:13:39.264Z,5.23
2023-04-08T08:16:09.191Z,5.33
2023-04-08T08:18:40.148Z,5.24
2023-04-08T08:21:08.548Z,5.30
2023-04-08T08:23:36.191Z,5.38
2023-04-08T08:26:04.944Z,5.27
2023-04-08T08:28:32.454Z,5.37
2023-04-08T08:31:00.359Z,5.44
2023-04-08T08:33:27.869Z,5.46
2023-04-08T08:35:58.144Z,5.54
2023-04-08T08:38:26.094Z,5.62
2023-04-08T08:40:56.367Z,5.57
2023-04-08T08:43:24.054Z,5.31
2023-04-08T08:45:51.605Z,5.38
2023-04-08T08:48:19.131Z,5.31
2023-04-08T08:50:46.720Z,5.38
2023-04-08T08:53:16.151Z,5.44
2023-04-08T08:56:13.660Z,5.45
2023-04-08T08:58:31.657Z,5.46
2023-04-08T09:01:00.974Z,5.51
2023-04-08T09:03:29.697Z,5.51
2023-04-08T09:05:58.846Z,5.49
2023-04-08T09:08:31.888Z,5.58
2023-04-08T09:11:12.459Z,5.56
2023-04-08T09:13:40.311Z,5.55
2023-04-08T09:16:09.574Z,5.60
2023-04-08T09:18:37.833Z,5.50
2023-04-08T09:21:06.428Z,5.56
2023-04-08T09:23:43.020Z,5.62
2023-04-08T09:26:11.887Z,5.58
2023-04-08T09:28:40.695Z,5.54
2023-04-08T09:31:21.827Z,5.65
2023-04-08T09:33:50.390Z,5.67
2023-04-08T09:36:18.378Z,5.61
2023-04-08T09:38:49.219Z,5.68
2023-04-08T09:41:17.891Z,5.70
2023-04-08T09:43:49.589Z,5.77
2023-04-08T09:46:19.257Z,5.87
2023-04-08T09:48:52.300Z,5.87
2023-04-08T09:51:22.508Z,5.66
2023-04-08T09:53:57.340Z,5.73
2023-04-08T09:56:25.892Z,5.78
2023-04-08T09:58:56.881Z,5.80
2023-04-08T10:01:29.836Z,5.73
2023-04-08T10:03:58.257Z,5.75
2023-04-08T10:06:29.507Z,5.85
2023-04-08T10:08:59.100Z,5.92
2023-04-08T10:11:26.600Z,6.00
2023-04-08T10:13:54.193Z,6.07
2023-04-08T10:16:24.412Z,6.14
2023-04-08T10:18:55.619Z,6.14
2023-04-08T10:21:33.135Z,6.21
2023-04-08T10:24:06.965Z,6.19
2023-04-08T10:26:36.710Z,6.16
2023-04-08T10:29:32.638Z,6.21
2023-04-08T10:32:01.260Z,6.12
2023-04-08T10:34:28.982Z,6.10
2023-04-08T10:36:58.969Z,6.01
2023-04-08T10:39:28.362Z,6.05
2023-04-08T10:41:56.338Z,6.12
2023-04-08T10:44:26.252Z,6.16
2023-04-08T10:46:54.703Z,6.22
2023-04-08T10:49:22.937Z,6.15
2023-04-08T10:51:50.516Z,6.24
2023-04-08T10:54:19.269Z,6.30
2023-04-08T10:56:49.509Z,6.36
2023-04-08T10:59:20.068Z,6.28
2023-04-08T11:01:48.076Z,6.35
2023-04-08T11:04:17.991Z,6.49
2023-04-08T11:06:46.875Z,6.45
2023-04-08T11:09:15.324Z,6.54
2023-04-08T11:11:43.414Z,6.63
2023-04-08T11:14:12.500Z,6.68
2023-04-08T11:16:40.697Z,6.77
2023-04-08T11:19:08.937Z,6.77
2023-04-08T11:21:37.626Z,6.71
2023-04-08T11:24:11.900Z,6.66
2023-04-08T11:26:39.662Z,6.78
2023-04-08T11:29:08.903Z,7.09
2023-04-08T11:31:38.181Z,7.33
2023-04-08T11:34:06.261Z,7.53
2023-04-08T11:36:35.284Z,7.79
2023-04-08T11:39:08.001Z,7.68
2023-04-08T11:41:40.535Z,7.73
2023-04-08T11:44:08.752Z,7.79
2023-04-08T11:46:38.106Z,7.78
2023-04-08T11:49:07.696Z,7.79
2023-04-08T11:51:36.207Z,7.81
2023-04-08T11:54:06.168Z,7.79
2023-04-08T11:56:45.633Z,7.79
2023-04-08T11:59:13.126Z,7.64
2023-04-08T12:01:41.990Z,7.63
2023-04-08T12:04:10.680Z,7.65
2023-04-08T12:06:38.375Z,7.72
2023-04-08T12:09:06.404Z,7.69
2023-04-08T12:11:34.787Z,7.64
2023-04-08T12:14:02.286Z,7.54
2023-04-08T12:16:30.054Z,7.55
2023-04-08T12:18:58.905Z,7.47
2023-04-08T12:21:27.850Z,7.52
2023-04-08T12:23:55.347Z,7.54
2023-04-08T12:26:22.853Z,7.57
2023-04-08T12:28:50.422Z,7.66
2023-04-08T12:31:17.931Z,7.74
2023-04-08T12:33:45.481Z,7.83
2023-04-08T12:36:14.291Z,7.72
2023-04-08T12:38:42.016Z,7.69
2023-04-08T12:41:09.583Z,7.63
2023-04-08T12:43:37.661Z,7.68
2023-04-08T12:46:05.210Z,7.67
2023-04-08T12:48:33.172Z,7.58
2023-04-08T12:51:00.836Z,7.57
2023-04-08T12:53:29.672Z,7.53
2023-04-08T12:55:57.587Z,7.47
2023-04-08T12:58:25.634Z,7.58
2023-04-08T13:00:53.331Z,7.52
2023-04-08T13:03:20.887Z,7.56
2023-04-08T13:05:48.551Z,7.45
2023-04-08T13:08:16.722Z,7.50
2023-04-08T13:10:45.607Z,7.53
2023-04-08T13:13:14.224Z,7.44
2023-04-08T13:15:41.976Z,7.54
2023-04-08T13:18:09.515Z,7.57
2023-04-08T13:20:37.097Z,7.62
2023-04-08T13:23:04.702Z,7.54
2023-04-08T13:25:32.229Z,7.62
2023-04-08T13:28:01.133Z,7.38
2023-04-08T13:30:28.631Z,7.50
2023-04-08T13:32:56.177Z,7.57
2023-04-08T13:35:23.800Z,7.63
2023-04-08T13:37:51.314Z,7.60
2023-04-08T13:40:18.800Z,7.62
2023-04-08T13:42:46.664Z,7.71
2023-04-08T13:45:15.654Z,7.83
2023-04-08T13:47:43.250Z,7.77
2023-04-08T13:50:11.216Z,7.83
2023-04-08T13:52:38.701Z,7.79
2023-04-08T13:55:07.258Z,7.77
2023-04-08T13:57:34.824Z,7.73
2023-04-08T14:00:02.330Z,7.70
2023-04-08T14:02:32.033Z,7.67
2023-04-08T14:04:59.583Z,7.66
2023-04-08T14:07:27.114Z,7.70
2023-04-08T14:09:54.905Z,7.81
2023-04-08T14:12:22.478Z,7.88
2023-04-08T14:14:49.973Z,7.95
2023-04-08T14:17:17.555Z,8.05
2023-04-08T14:19:46.408Z,8.09
2023-04-08T14:22:14.971Z,8.15
2023-04-08T14:24:42.536Z,8.12
2023-04-08T14:27:10.265Z,8.13
2023-04-08T14:29:37.823Z,8.19
2023-04-08T14:32:05.657Z,8.24
2023-04-08T14:34:33.191Z,8.32
2023-04-08T14:37:02.022Z,8.26
2023-04-08T14:39:29.535Z,8.30
2023-04-08T14:41:57.371Z,8.19
2023-04-08T14:44:24.911Z,8.21
2023-04-08T14:46:52.570Z,8.15
2023-04-08T14:49:23.316Z,8.19
2023-04-08T14:51:52.741Z,8.19
2023-04-08T14:54:22.254Z,8.16
2023-04-08T14:56:49.750Z,8.16
2023-04-08T14:59:17.279Z,8.19
2023-04-08T15:01:45.068Z,8.16
2023-04-08T15:04:12.710Z,8.10
2023-04-08T15:06:40.463Z,8.14
2023-04-08T15:09:08.060Z,8.15
2023-04-08T15:11:37.065Z,8.08
2023-04-08T15:14:04.580Z,8.06
2023-04-08T15:16:33.004Z,8.11
2023-04-08T15:19:00.694Z,8.15
2023-04-08T15:21:28.219Z,8.18
2023-04-08T15:23:55.751Z,8.18
2023-04-08T15:26:24.406Z,8.20
2023-04-08T15:28:55.163Z,8.13
2023-04-08T15:31:22.776Z,8.15
2023-04-08T15:33:50.566Z,8.08
2023-04-08T15:36:19.827Z,8.10
2023-04-08T15:38:47.911Z,8.06
2023-04-08T15:41:19.190Z,8.14
2023-04-08T15:43:47.032Z,8.11
2023-04-08T15:46:19.607Z,8.09
2023-04-08T15:48:47.359Z,8.09
2023-04-08T15:51:14.879Z,8.10
2023-04-08T15:53:42.666Z,8.11
2023-04-08T15:56:13.475Z,8.07
2023-04-08T15:58:41.099Z,8.04
2023-04-08T16:01:08.926Z,8.02
2023-04-08T16:03:38.032Z,8.00
2023-04-08T16:06:08.655Z,7.96
2023-04-08T16:08:37.298Z,7.95
2023-04-08T16:11:06.222Z,7.98
2023-04-08T16:13:34.153Z,7.97
2023-04-08T16:16:02.660Z,7.94
2023-04-08T16:18:30.420Z,7.89
2023-04-08T16:20:59.276Z,7.85
2023-04-08T16:23:27.086Z,7.87
2023-04-08T16:25:54.578Z,7.88
2023-04-08T16:28:22.072Z,7.93
2023-04-08T16:30:49.580Z,7.91
2023-04-08T16:33:17.123Z,7.79
2023-04-08T16:35:44.788Z,7.80
2023-04-08T16:38:14.847Z,7.74
2023-04-08T16:40:42.524Z,7.79
2023-04-08T16:43:10.088Z,7.79
2023-04-08T16:45:37.879Z,7.86
2023-04-08T16:48:05.478Z,7.83
2023-04-08T16:50:33.018Z,7.75
2023-04-08T16:53:00.606Z,7.76
2023-04-08T16:55:29.437Z,7.76
2023-04-08T16:57:57.804Z,7.78
2023-04-08T17:00:25.356Z,7.79
2023-04-08T17:02:55.507Z,7.67
2023-04-08T17:05:23.248Z,7.62
2023-04-08T17:07:50.792Z,7.68
2023-04-08T17:10:18.887Z,7.68
2023-04-08T17:12:47.676Z,7.73
2023-04-08T17:15:15.387Z,7.76
2023-04-08T17:17:42.981Z,7.77
2023-04-08T17:20:11.886Z,7.82
2023-04-08T17:22:39.401Z,7.83
2023-04-08T17:25:07.875Z,7.81
2023-04-08T17:27:35.383Z,7.82
2023-04-08T17:30:04.824Z,7.73
2023-04-08T17:32:32.320Z,7.63
2023-04-08T17:34:59.893Z,7.68
2023-04-08T17:37:27.499Z,7.68
2023-04-08T17:39:55.015Z,7.67
2023-04-08T17:42:23.652Z,7.67
2023-04-08T17:44:51.139Z,7.68
2023-04-08T17:47:21.059Z,7.68
2023-04-08T17:49:48.604Z,7.66
2023-04-08T17:52:16.280Z,7.63
2023-04-08T17:54:43.963Z,7.65
2023-04-08T17:57:11.472Z,7.65
2023-04-08T17:59:38.981Z,7.66
2023-04-08T18:02:06.555Z,7.60
2023-04-08T18:04:35.392Z,7.60
2023-04-08T18:07:04.420Z,7.59
2023-04-08T18:09:32.040Z,7.58
2023-04-08T18:11:59.556Z,7.58
2023-04-08T18:14:29.135Z,7.57
2023-04-08T18:16:56.765Z,7.55
2023-04-08T18:19:26.090Z,7.53
2023-04-08T18:21:55.291Z,7.55
2023-04-08T18:24:22.850Z,7.51
2023-04-08T18:27:01.461Z,7.49
2023-04-08T18:29:31.297Z,7.35
2023-04-08T18:32:03.201Z,7.38
2023-04-08T18:34:31.953Z,7.38
2023-04-08T18:37:01.049Z,7.38
2023-04-08T18:39:28.536Z,7.38
2023-04-08T18:41:56.597Z,7.40
2023-04-08T18:44:24.318Z,7.36
2023-04-08T18:46:51.821Z,7.28
2023-04-08T18:49:19.310Z,7.31
2023-04-08T18:51:55.520Z,7.30
2023-04-08T18:54:31.501Z,7.27
2023-04-08T18:56:59.128Z,7.27
2023-04-08T18:59:28.317Z,7.28
2023-04-08T19:01:56.315Z,7.29
2023-04-08T19:04:23.893Z,7.29
2023-04-08T19:06:51.434Z,7.29
2023-04-08T19:09:19.195Z,7.25
2023-04-08T19:11:48.566Z,7.23
2023-04-08T19:14:16.054Z,7.21
2023-04-08T19:16:43.696Z,7.22
2023-04-08T19:19:11.158Z,7.18
2023-04-08T19:21:38.723Z,7.09
2023-04-08T19:24:06.619Z,7.04
2023-04-08T19:26:34.675Z,7.07
2023-04-08T19:29:03.621Z,7.09
2023-04-08T19:31:31.372Z,7.05
2023-04-08T19:33:59.008Z,7.05
2023-04-08T19:36:27.464Z,7.05
2023-04-08T19:38:54.928Z,7.02
2023-04-08T19:41:23.109Z,6.90
2023-04-08T19:43:50.761Z,6.92
2023-04-08T19:46:19.740Z,6.95
2023-04-08T19:48:47.396Z,6.95
2023-04-08T19:51:16.945Z,6.93
2023-04-08T19:53:44.598Z,6.90
2023-04-08T19:56:12.037Z,6.80
2023-04-08T19:58:39.521Z,6.85
2023-04-08T20:01:07.333Z,6.85
2023-04-08T20:03:36.399Z,6.85
2023-04-08T20:06:03.961Z,6.77
2023-04-08T20:08:31.438Z,6.81
2023-04-08T20:10:59.381Z,6.81
2023-04-08T20:13:26.855Z,6.81
2023-04-08T20:15:54.410Z,6.81
2023-04-08T20:18:22.040Z,6.75
2023-04-08T20:20:50.835Z,6.74
2023-04-08T20:23:18.366Z,6.68
2023-04-08T20:25:45.862Z,6.62
2023-04-08T20:28:13.359Z,6.49
2023-04-08T20:30:40.856Z,6.41
2023-04-08T20:33:08.373Z,6.40
2023-04-08T20:35:35.911Z,6.39
2023-04-08T20:38:05.190Z,6.30
2023-04-08T20:40:32.878Z,6.19
2023-04-08T20:43:00.569Z,6.20
2023-04-08T20:45:28.265Z,6.17
2023-04-08T20:47:55.893Z,6.22
2023-04-08T20:50:23.854Z,6.23
2023-04-08T20:52:51.641Z,6.26
2023-04-08T20:55:20.671Z,6.23
2023-04-08T20:57:48.361Z,6.12
2023-04-08T21:00:16.947Z,6.08
2023-04-08T21:02:44.883Z,6.04
2023-04-08T21:05:12.565Z,6.08
2023-04-08T21:07:44.238Z,6.04
2023-04-08T21:10:12.362Z,6.22
2023-04-08T21:12:41.207Z,6.15
2023-04-08T21:15:09.757Z,6.05
2023-04-08T21:17:37.343Z,6.09
2023-04-08T21:20:06.532Z,6.10
2023-04-08T21:22:34.073Z,6.07
2023-04-08T21:25:01.561Z,6.02
2023-04-08T21:27:29.277Z,6.00
2023-04-08T21:29:58.112Z,5.97
2023-04-08T21:32:26.491Z,5.85
2023-04-08T21:34:55.048Z,5.75
2023-04-08T21:37:23.066Z,5.63
2023-04-08T21:39:51.516Z,5.45
2023-04-08T21:42:22.527Z,5.40
2023-04-08T21:44:50.041Z,5.42
2023-04-08T21:47:18.978Z,5.43
2023-04-08T21:49:46.472Z,5.44
2023-04-08T21:52:13.973Z,5.41
2023-04-08T21:54:41.547Z,5.37
2023-04-08T21:57:09.000Z,5.33
2023-04-08T21:59:36.846Z,5.22
2023-04-08T22:02:04.636Z,5.25
2023-04-08T22:04:33.528Z,5.38
2023-04-08T22:07:01.548Z,5.27
2023-04-08T22:09:29.066Z,5.22
2023-04-08T22:11:57.197Z,5.31
2023-04-08T22:14:24.713Z,5.31
2023-04-08T22:16:52.288Z,5.24
2023-04-08T22:19:19.996Z,5.27
2023-04-08T22:21:50.164Z,5.05
2023-04-08T22:24:17.943Z,4.84
2023-04-08T22:26:45.422Z,4.97
2023-04-08T22:29:13.002Z,5.23
2023-04-08T22:31:40.705Z,5.43
2023-04-08T22:34:08.205Z,5.08
2023-04-08T22:36:35.748Z,5.35
2023-04-08T22:39:04.819Z,5.03
2023-04-08T22:41:32.296Z,4.85
2023-04-08T22:43:59.794Z,4.73
2023-04-08T22:46:27.281Z,4.60
2023-04-08T22:48:54.931Z,4.57
2023-04-08T22:51:22.447Z,4.51
2023-04-08T22:53:49.960Z,4.48
2023-04-08T22:56:18.789Z,4.27
2023-04-08T22:58:46.307Z,4.45
2023-04-08T23:01:14.995Z,4.32
2023-04-08T23:03:42.625Z,4.14
2023-04-08T23:06:10.152Z,4.07
2023-04-08T23:08:38.630Z,4.18
2023-04-08T23:11:06.414Z,4.21
2023-04-08T23:13:35.383Z,4.11
2023-04-08T23:16:03.023Z,4.05
2023-04-08T23:18:30.746Z,4.01
2023-04-08T23:20:58.596Z,4.11
2023-04-08T23:23:26.454Z,4.03
2023-04-08T23:25:55.695Z,3.91
2023-04-08T23:28:23.548Z,3.93
2023-04-08T23:30:52.383Z,3.90
2023-04-08T23:33:19.938Z,3.82
2023-04-08T23:35:47.464Z,3.78
2023-04-08T23:38:15.014Z,3.86
2023-04-08T23:40:42.488Z,3.80
2023-04-08T23:43:09.986Z,3.84
2023-04-08T23:45:37.463Z,3.77
2023-04-08T23:48:09.960Z,3.85
2023-04-08T23:50:37.729Z,3.82
2023-04-08T23:53:05.335Z,3.63
2023-04-08T23:55:32.842Z,3.54
2023-04-08T23:58:00.327Z,3.62
